LFML 211930Z AUTO 27013KT CAVOK 10/06 Q1017 NOSIG

ElémentsDécodage
LFML Station météo située sur l'aérodrome de MARSEILLE PROVENCE
211930Z émis le 21 du mois à 19h30 UTC
AUTO Bulletin édité par un automate
27013KT vent du 270°, 13 noeuds
CAVOK Ceiling And Visibility OK
- Visibilité de 10 Km ou plus
- Pas de nuage au-dessous de 1500m ou au-dessous de l'altitude minimale du secteur la plus élevée (si>1500m) et absence de CB
- pas de temps présent significatif
10/06 température 10°C, point de rosée 06°C
 soit une humidité relative de 76%
Q1017 la pression au niveau de la mer (QNH) est de 1017 hPa
NOSIG Pas de changement significatif prévu au cours des deux heures suivant l'heure de l'observation